createdAt,value
2024-02-24T00:00:02.546Z,7.30
2024-02-24T00:02:30.890Z,7.20
2024-02-24T00:04:59.572Z,7.20
2024-02-24T00:07:30.461Z,7.20
2024-02-24T00:10:00.370Z,7.40
2024-02-24T00:12:28.900Z,7.50
2024-02-24T00:14:57.827Z,7.60
2024-02-24T00:17:27.876Z,7.70
2024-02-24T00:19:58.693Z,7.60
2024-02-24T00:22:27.268Z,7.60
2024-02-24T00:25:05.251Z,7.40
2024-02-24T00:27:42.969Z,7.20
2024-02-24T00:30:15.722Z,7.20
2024-02-24T00:32:44.667Z,7.30
2024-02-24T00:35:14.823Z,7.40
2024-02-24T00:37:47.605Z,7.30
2024-02-24T00:40:18.962Z,7.30
2024-02-24T00:42:47.871Z,7.30
2024-02-24T00:45:17.500Z,7.40
2024-02-24T00:47:46.234Z,7.40
2024-02-24T00:50:18.322Z,7.40
2024-02-24T00:52:48.850Z,7.50
2024-02-24T00:55:19.660Z,7.30
2024-02-24T00:57:49.319Z,7.30
2024-02-24T01:00:26.805Z,7.20
2024-02-24T01:02:56.663Z,7.10
2024-02-24T01:09:24.911Z,7.00
2024-02-24T01:12:01.053Z,7.00
2024-02-24T01:14:30.653Z,7.10
2024-02-24T01:17:01.445Z,7.00
2024-02-24T01:19:32.809Z,7.00
2024-02-24T01:22:03.512Z,7.00
2024-02-24T01:24:32.013Z,7.00
2024-02-24T01:27:00.747Z,6.90
2024-02-24T01:29:37.966Z,6.90
2024-02-24T01:32:14.008Z,6.90
2024-02-24T01:34:49.977Z,6.80
2024-02-24T01:37:18.344Z,6.60
2024-02-24T01:39:49.017Z,6.50
2024-02-24T01:42:16.287Z,6.50
2024-02-24T01:44:44.800Z,6.70
2024-02-24T01:47:13.337Z,6.70
2024-02-24T01:49:43.001Z,6.60
2024-02-24T01:52:13.182Z,6.60
2024-02-24T01:54:41.543Z,6.70
2024-02-24T01:57:19.589Z,6.80
2024-02-24T01:59:56.716Z,6.80
2024-02-24T02:02:25.389Z,7.00
2024-02-24T02:04:56.419Z,7.00
2024-02-24T02:07:26.201Z,6.80
2024-02-24T02:10:05.788Z,6.70
2024-02-24T02:12:43.083Z,6.60
2024-02-24T02:15:11.047Z,6.40
2024-02-24T02:17:40.267Z,6.40
2024-02-24T02:20:11.474Z,6.40
2024-02-24T02:22:47.540Z,6.40
2024-02-24T02:25:20.343Z,6.40
2024-02-24T02:27:49.421Z,6.50
2024-02-24T02:30:17.946Z,6.40
2024-02-24T02:32:48.143Z,6.20
2024-02-24T02:35:17.139Z,6.40
2024-02-24T02:37:53.668Z,6.50
2024-02-24T02:40:21.043Z,6.70
2024-02-24T02:42:49.426Z,6.60
2024-02-24T02:45:28.627Z,6.50
2024-02-24T02:47:59.356Z,6.80
2024-02-24T02:50:28.823Z,6.70
2024-02-24T02:52:57.330Z,6.40
2024-02-24T02:55:26.260Z,6.30
2024-02-24T02:57:55.417Z,6.10
2024-02-24T03:00:31.842Z,6.00
2024-02-24T03:03:05.479Z,5.90
2024-02-24T03:05:34.982Z,5.90
2024-02-24T03:08:04.228Z,5.90
2024-02-24T03:10:35.213Z,5.70
2024-02-24T03:13:03.996Z,5.80
2024-02-24T03:15:32.145Z,5.80
2024-02-24T03:18:02.069Z,5.80
2024-02-24T03:20:33.303Z,5.80
2024-02-24T03:23:00.571Z,5.90
2024-02-24T03:25:29.524Z,5.80
2024-02-24T03:28:01.956Z,5.90
2024-02-24T03:30:29.026Z,5.90
2024-02-24T03:32:59.946Z,5.90
2024-02-24T03:35:30.446Z,5.90
2024-02-24T03:38:00.118Z,5.90
2024-02-24T03:40:30.979Z,5.80
2024-02-24T03:43:04.744Z,5.90
2024-02-24T03:45:41.122Z,6.00
2024-02-24T03:48:08.760Z,5.80
2024-02-24T03:50:38.937Z,5.80
2024-02-24T03:53:06.669Z,6.00
2024-02-24T03:55:35.715Z,5.90
2024-02-24T03:58:04.585Z,5.80
2024-02-24T04:00:36.951Z,5.70
2024-02-24T04:03:09.390Z,5.60
2024-02-24T04:05:41.158Z,5.50
2024-02-24T04:08:09.928Z,5.40
2024-02-24T04:10:41.678Z,5.40
2024-02-24T04:13:11.741Z,5.10
2024-02-24T04:15:47.215Z,5.10
2024-02-24T04:18:19.064Z,5.10
2024-02-24T04:20:48.935Z,5.10
2024-02-24T04:23:19.567Z,5.10
2024-02-24T04:25:49.146Z,5.10
2024-02-24T04:28:19.148Z,5.20
2024-02-24T04:30:57.689Z,5.20
2024-02-24T04:33:26.168Z,5.30
2024-02-24T04:35:55.956Z,5.40
2024-02-24T04:38:24.554Z,5.40
2024-02-24T04:40:51.764Z,5.40
2024-02-24T04:43:22.419Z,5.50
2024-02-24T04:45:52.581Z,5.40
2024-02-24T04:48:21.391Z,5.40
2024-02-24T04:50:59.334Z,5.40
2024-02-24T04:53:33.483Z,5.40
2024-02-24T04:56:01.822Z,5.50
2024-02-24T04:58:37.979Z,5.50
2024-02-24T05:01:10.067Z,5.30
2024-02-24T05:03:41.018Z,5.40
2024-02-24T05:06:18.078Z,5.40
2024-02-24T05:08:46.920Z,5.40
2024-02-24T05:11:17.529Z,5.20
2024-02-24T05:13:48.626Z,5.20
2024-02-24T05:16:18.688Z,5.20
2024-02-24T05:18:50.835Z,5.40
2024-02-24T05:21:31.048Z,5.50
2024-02-24T05:23:59.736Z,5.40
2024-02-24T05:26:34.705Z,5.30
2024-02-24T05:29:14.409Z,5.10
2024-02-24T05:31:44.644Z,5.00
2024-02-24T05:34:15.177Z,5.00
2024-02-24T05:36:43.528Z,4.90
2024-02-24T05:39:13.079Z,4.70
2024-02-24T05:41:41.462Z,4.70
2024-02-24T05:44:10.054Z,4.60
2024-02-24T05:46:39.068Z,4.50
2024-02-24T05:49:07.254Z,4.60
2024-02-24T05:51:39.275Z,4.60
2024-02-24T05:54:09.350Z,4.50
2024-02-24T05:56:38.155Z,4.50
2024-02-24T05:59:08.857Z,4.60
2024-02-24T06:01:37.236Z,4.70
2024-02-24T06:04:06.141Z,4.60
2024-02-24T06:06:42.182Z,4.70
2024-02-24T06:09:12.789Z,4.80
2024-02-24T06:11:41.447Z,4.80
2024-02-24T06:14:12.725Z,4.90
2024-02-24T06:16:43.245Z,4.90
2024-02-24T06:19:18.934Z,4.70
2024-02-24T06:21:49.610Z,4.60
2024-02-24T06:24:19.585Z,4.50
2024-02-24T06:26:48.500Z,4.50
2024-02-24T06:29:28.895Z,4.70
2024-02-24T06:31:59.776Z,4.90
2024-02-24T06:34:28.374Z,4.90
2024-02-24T06:36:57.951Z,4.70
2024-02-24T06:39:25.197Z,4.60
2024-02-24T06:41:53.686Z,4.50
2024-02-24T06:44:23.709Z,4.50
2024-02-24T06:46:55.158Z,4.50
2024-02-24T06:49:25.019Z,4.70
2024-02-24T06:52:02.422Z,4.60
2024-02-24T06:54:31.851Z,4.70
2024-02-24T06:57:02.752Z,4.80
2024-02-24T06:59:31.316Z,4.90
2024-02-24T07:01:59.564Z,4.90
2024-02-24T07:04:28.081Z,5.00
2024-02-24T07:06:56.282Z,5.10
2024-02-24T07:09:23.774Z,5.30
2024-02-24T07:11:51.416Z,5.20
2024-02-24T07:14:26.508Z,5.30
2024-02-24T07:16:54.990Z,5.30
2024-02-24T07:19:22.870Z,5.30
2024-02-24T07:21:55.649Z,5.30
2024-02-24T07:24:24.184Z,5.10
2024-02-24T07:26:56.664Z,4.90
2024-02-24T07:29:26.342Z,4.90
2024-02-24T07:31:55.434Z,5.00
2024-02-24T07:34:23.384Z,5.20
2024-02-24T07:36:54.305Z,5.40
2024-02-24T07:39:22.766Z,5.60
2024-02-24T07:41:57.420Z,5.60
2024-02-24T07:44:25.045Z,5.60
2024-02-24T07:47:04.067Z,5.90
2024-02-24T07:49:34.940Z,6.30
2024-02-24T07:52:02.888Z,6.60
2024-02-24T07:54:39.985Z,6.60
2024-02-24T07:57:08.634Z,7.00
2024-02-24T07:59:39.393Z,7.30
2024-02-24T08:02:09.039Z,7.20
2024-02-24T08:04:37.680Z,7.30
2024-02-24T08:07:09.147Z,7.30
2024-02-24T08:09:39.040Z,7.00
2024-02-24T08:12:09.752Z,7.30
2024-02-24T08:14:40.845Z,7.70
2024-02-24T08:17:12.322Z,7.70
2024-02-24T08:19:43.625Z,7.50
2024-02-24T08:22:14.261Z,7.60
2024-02-24T08:24:51.276Z,7.60
2024-02-24T08:27:19.682Z,7.50
2024-02-24T08:29:50.279Z,7.70
2024-02-24T08:32:20.029Z,7.80
2024-02-24T08:34:47.747Z,7.90
2024-02-24T08:37:24.658Z,8.00
2024-02-24T08:39:51.776Z,8.10
2024-02-24T08:42:30.433Z,8.10
2024-02-24T08:45:00.209Z,8.20
2024-02-24T08:47:30.536Z,8.20
2024-02-24T08:50:07.310Z,8.30
2024-02-24T08:52:50.201Z,8.60
2024-02-24T08:55:22.326Z,8.70
2024-02-24T08:57:59.466Z,9.10
2024-02-24T09:00:27.965Z,9.30
2024-02-24T09:02:56.762Z,9.60
2024-02-24T09:05:27.115Z,9.70
2024-02-24T09:07:58.165Z,9.90
2024-02-24T09:10:35.615Z,10.00
2024-02-24T09:13:02.813Z,9.90
2024-02-24T09:15:34.872Z,9.50
2024-02-24T09:18:06.335Z,9.50
2024-02-24T09:20:35.424Z,9.60
2024-02-24T09:25:46.877Z,9.00
2024-02-24T09:28:23.318Z,9.00
2024-02-24T09:30:53.205Z,9.10
2024-02-24T09:33:21.929Z,9.30
2024-02-24T09:35:51.854Z,9.50
2024-02-24T09:38:23.122Z,9.60
2024-02-24T09:40:59.597Z,9.90
2024-02-24T09:43:29.674Z,10.00
2024-02-24T09:46:00.259Z,10.20
2024-02-24T09:48:33.060Z,10.30
2024-02-24T09:51:01.249Z,10.40
2024-02-24T09:53:38.140Z,10.50
2024-02-24T09:56:07.462Z,10.50
2024-02-24T09:58:36.016Z,10.50
2024-02-24T10:01:05.570Z,10.50
2024-02-24T10:03:44.664Z,10.60
2024-02-24T10:06:14.476Z,10.40
2024-02-24T10:08:43.848Z,10.40
2024-02-24T10:11:16.283Z,10.60
2024-02-24T10:13:45.365Z,10.70
2024-02-24T10:16:19.164Z,10.80
2024-02-24T10:18:48.534Z,10.80
2024-02-24T10:21:21.655Z,10.60
2024-02-24T10:23:52.797Z,10.80
2024-02-24T10:26:20.152Z,10.80
2024-02-24T10:28:48.845Z,10.80
2024-02-24T10:31:25.897Z,10.90
2024-02-24T10:33:56.963Z,10.80
2024-02-24T10:36:31.251Z,10.90
2024-02-24T10:39:02.789Z,11.00
2024-02-24T10:44:10.531Z,10.90
2024-02-24T10:46:52.046Z,11.00
2024-02-24T10:49:24.813Z,11.10
2024-02-24T10:51:53.649Z,11.10
2024-02-24T10:54:26.164Z,11.20
2024-02-24T10:57:01.112Z,10.90
2024-02-24T10:59:32.403Z,11.00
2024-02-24T11:02:12.122Z,11.10
2024-02-24T11:04:43.056Z,10.90
2024-02-24T11:07:42.571Z,10.60
2024-02-24T11:10:33.488Z,10.70
2024-02-24T11:13:04.715Z,10.90
2024-02-24T11:15:35.393Z,11.10
2024-02-24T11:18:06.469Z,11.20
2024-02-24T11:20:47.185Z,11.30
2024-02-24T11:23:36.438Z,11.20
2024-02-24T11:26:28.560Z,11.00
2024-02-24T11:29:10.836Z,10.90
2024-02-24T11:31:47.302Z,10.90
2024-02-24T11:34:17.554Z,10.90
2024-02-24T11:39:32.154Z,10.90
2024-02-24T11:42:00.720Z,11.10
2024-02-24T11:44:27.916Z,11.30
2024-02-24T11:47:05.338Z,11.40
2024-02-24T11:49:41.297Z,11.30
2024-02-24T11:52:09.654Z,11.40
2024-02-24T11:54:44.263Z,11.40
2024-02-24T11:57:14.891Z,11.40
2024-02-24T11:59:45.215Z,11.50
2024-02-24T12:02:17.939Z,11.50
2024-02-24T12:04:45.228Z,11.40
2024-02-24T12:07:15.594Z,11.30
2024-02-24T12:09:48.368Z,11.40
2024-02-24T12:12:27.380Z,11.50
2024-02-24T12:14:57.253Z,11.50
2024-02-24T12:17:25.889Z,11.40
2024-02-24T12:20:00.413Z,11.30
2024-02-24T12:22:29.948Z,11.30
2024-02-24T12:25:18.477Z,11.30
2024-02-24T12:27:50.472Z,11.40
2024-02-24T12:30:28.563Z,11.30
2024-02-24T12:32:58.791Z,11.50
2024-02-24T12:35:30.016Z,11.40
2024-02-24T12:38:07.214Z,11.50
2024-02-24T12:40:41.187Z,11.60
2024-02-24T12:43:09.695Z,11.70
2024-02-24T12:45:45.532Z,11.60
2024-02-24T12:48:21.137Z,11.50
2024-02-24T12:50:51.660Z,11.60
2024-02-24T12:53:23.343Z,11.80
2024-02-24T12:55:51.968Z,11.80
2024-02-24T12:58:24.649Z,11.60
2024-02-24T13:00:58.520Z,11.60
2024-02-24T13:03:28.557Z,11.70
2024-02-24T13:06:01.282Z,11.80
2024-02-24T13:08:29.987Z,11.90
2024-02-24T13:11:07.337Z,11.80
2024-02-24T13:13:35.543Z,11.90
2024-02-24T13:16:05.510Z,12.10
2024-02-24T13:18:45.730Z,12.20
2024-02-24T13:21:14.716Z,12.00
2024-02-24T13:23:42.292Z,12.00
2024-02-24T13:26:11.019Z,12.00
2024-02-24T13:28:41.053Z,11.90
2024-02-24T13:31:08.611Z,11.80
2024-02-24T13:33:36.976Z,11.60
2024-02-24T13:36:06.640Z,11.60
2024-02-24T13:38:35.591Z,11.90
2024-02-24T13:41:05.542Z,12.00
2024-02-24T13:43:34.334Z,12.10
2024-02-24T13:46:12.670Z,12.00
2024-02-24T13:48:39.952Z,12.00
2024-02-24T13:51:07.378Z,12.00
2024-02-24T13:53:44.737Z,11.90
2024-02-24T13:56:12.467Z,11.80
2024-02-24T13:58:42.180Z,11.90
2024-02-24T14:01:10.710Z,11.90
2024-02-24T14:03:58.152Z,11.90
2024-02-24T14:06:29.740Z,11.90
2024-02-24T14:09:08.221Z,12.00
2024-02-24T14:11:39.868Z,12.10
2024-02-24T14:14:10.977Z,12.20
2024-02-24T14:16:42.726Z,12.10
2024-02-24T14:19:11.786Z,12.20
2024-02-24T14:21:40.968Z,11.90
2024-02-24T14:24:09.866Z,11.80
2024-02-24T14:26:41.069Z,11.80
2024-02-24T14:29:11.246Z,11.90
2024-02-24T14:31:43.185Z,11.90
2024-02-24T14:34:11.955Z,11.80
2024-02-24T14:36:48.087Z,11.70
2024-02-24T14:39:25.231Z,11.60
2024-02-24T14:41:56.721Z,11.50
2024-02-24T14:44:35.983Z,11.60
2024-02-24T14:47:08.697Z,11.70
2024-02-24T14:49:39.497Z,11.70
2024-02-24T14:52:11.039Z,11.70
2024-02-24T14:54:43.711Z,11.60
2024-02-24T14:57:14.786Z,11.70
2024-02-24T14:59:45.870Z,11.60
2024-02-24T15:02:25.687Z,11.60
2024-02-24T15:05:02.967Z,11.60
2024-02-24T15:07:30.249Z,11.50
2024-02-24T15:09:59.207Z,11.40
2024-02-24T15:12:30.768Z,11.20
2024-02-24T15:15:00.461Z,11.30
2024-02-24T15:17:39.322Z,11.30
2024-02-24T15:20:09.785Z,11.20
2024-02-24T15:22:39.939Z,11.10
2024-02-24T15:25:25.137Z,11.00
2024-02-24T15:27:55.894Z,10.90
2024-02-24T15:30:24.440Z,10.90
2024-02-24T15:33:03.833Z,10.90
2024-02-24T15:35:33.954Z,10.90
2024-02-24T15:38:02.241Z,10.80
2024-02-24T15:40:32.718Z,10.70
2024-02-24T15:43:09.642Z,10.80
2024-02-24T15:45:40.484Z,10.80
2024-02-24T15:48:11.629Z,10.60
2024-02-24T15:50:41.978Z,10.60
2024-02-24T15:53:10.219Z,10.60
2024-02-24T15:55:50.653Z,10.70
2024-02-24T15:58:27.082Z,10.60
2024-02-24T16:00:56.128Z,10.50
2024-02-24T16:03:23.335Z,10.50
2024-02-24T16:05:50.505Z,10.30
2024-02-24T16:08:25.831Z,10.20
2024-02-24T16:10:55.828Z,10.10
2024-02-24T16:13:27.604Z,10.10
2024-02-24T16:15:58.181Z,10.00
2024-02-24T16:18:26.819Z,9.90
2024-02-24T16:20:55.509Z,9.90
2024-02-24T16:23:24.670Z,9.90
2024-02-24T16:25:51.775Z,9.90
2024-02-24T16:28:21.074Z,9.90
2024-02-24T16:30:49.694Z,10.00
2024-02-24T16:33:18.239Z,9.90
2024-02-24T16:35:47.636Z,9.70
2024-02-24T16:38:19.957Z,9.50
2024-02-24T16:40:49.465Z,9.30
2024-02-24T16:43:19.255Z,9.30
2024-02-24T16:45:48.006Z,9.30
2024-02-24T16:48:20.176Z,9.40
2024-02-24T16:50:47.726Z,9.30
2024-02-24T16:53:16.525Z,9.40
2024-02-24T16:55:47.267Z,9.30
2024-02-24T16:58:15.787Z,9.40
2024-02-24T17:00:44.805Z,9.50
2024-02-24T17:03:13.986Z,9.50
2024-02-24T17:05:51.876Z,9.50
2024-02-24T17:08:23.028Z,9.30
2024-02-24T17:11:03.681Z,8.80
2024-02-24T17:13:32.775Z,8.80
2024-02-24T17:16:10.450Z,8.90
2024-02-24T17:18:40.283Z,9.00
2024-02-24T17:21:10.623Z,8.90
2024-02-24T17:23:42.307Z,8.80
2024-02-24T17:26:17.164Z,8.80
2024-02-24T17:28:50.477Z,8.90
2024-02-24T17:31:20.519Z,8.90
2024-02-24T17:33:48.476Z,8.90
2024-02-24T17:36:25.133Z,8.80
2024-02-24T17:38:57.256Z,8.80
2024-02-24T17:41:26.114Z,8.70
2024-02-24T17:43:54.628Z,8.80
2024-02-24T17:46:25.675Z,8.70
2024-02-24T17:48:54.312Z,8.60
2024-02-24T17:51:25.555Z,8.50
2024-02-24T17:54:01.672Z,8.50
2024-02-24T17:56:34.435Z,8.30
2024-02-24T17:59:01.788Z,8.30
2024-02-24T18:01:38.541Z,8.40
2024-02-24T18:04:18.953Z,8.40
2024-02-24T18:06:50.675Z,8.30
2024-02-24T18:09:18.313Z,8.40
2024-02-24T18:11:47.570Z,8.30
2024-02-24T18:14:18.980Z,8.30
2024-02-24T18:16:48.779Z,8.30
2024-02-24T18:19:26.915Z,8.20
2024-02-24T18:22:04.345Z,8.10
2024-02-24T18:24:32.476Z,8.00
2024-02-24T18:27:03.734Z,8.00
2024-02-24T18:29:35.748Z,8.00
2024-02-24T18:32:16.245Z,8.00
2024-02-24T18:34:45.766Z,8.00
2024-02-24T18:37:23.311Z,8.00
2024-02-24T18:39:54.005Z,8.00
2024-02-24T18:42:27.200Z,8.00
2024-02-24T18:45:01.869Z,8.10
2024-02-24T18:47:30.220Z,8.20
2024-02-24T18:50:00.340Z,8.10
2024-02-24T18:52:32.135Z,8.00
2024-02-24T18:55:08.408Z,8.00
2024-02-24T18:57:40.280Z,8.00
2024-02-24T19:00:14.907Z,8.10
2024-02-24T19:02:54.988Z,8.10
2024-02-24T19:05:34.882Z,8.10
2024-02-24T19:08:07.474Z,8.20
2024-02-24T19:10:37.415Z,8.40
2024-02-24T19:13:05.008Z,8.50
2024-02-24T19:15:39.461Z,8.40
2024-02-24T19:18:22.260Z,8.50
2024-02-24T19:20:58.578Z,8.40
2024-02-24T19:23:45.589Z,8.20
2024-02-24T19:26:16.727Z,8.00
2024-02-24T19:28:48.061Z,7.80
2024-02-24T19:31:26.743Z,7.70
2024-02-24T19:33:55.010Z,7.70
2024-02-24T19:36:25.796Z,7.60
2024-02-24T19:38:58.022Z,7.60
2024-02-24T19:41:35.851Z,7.50
2024-02-24T19:46:52.354Z,8.00
2024-02-24T19:49:29.580Z,8.00
2024-02-24T19:52:08.099Z,8.10
2024-02-24T19:54:52.308Z,8.20
2024-02-24T19:57:41.231Z,8.20
2024-02-24T20:00:17.040Z,8.10
2024-02-24T20:02:48.664Z,8.10
2024-02-24T20:05:24.172Z,7.90
2024-02-24T20:07:58.084Z,7.70
2024-02-24T20:10:41.097Z,7.40
2024-02-24T20:13:21.524Z,7.60
2024-02-24T20:15:53.722Z,7.70
2024-02-24T20:18:30.800Z,7.60
2024-02-24T20:21:02.677Z,7.70
2024-02-24T20:23:46.705Z,7.70
2024-02-24T20:26:28.763Z,7.50
2024-02-24T20:29:04.421Z,7.30
2024-02-24T20:31:36.729Z,6.90
2024-02-24T20:34:08.613Z,6.50
2024-02-24T20:36:38.575Z,6.40
2024-02-24T20:39:09.678Z,6.50
2024-02-24T20:41:42.017Z,6.50
2024-02-24T20:44:10.795Z,6.40
2024-02-24T20:46:51.468Z,6.40
2024-02-24T20:49:23.507Z,6.40
2024-02-24T20:52:00.057Z,6.40
2024-02-24T20:54:32.891Z,6.40
2024-02-24T20:57:02.948Z,6.30
2024-02-24T20:59:33.304Z,6.40
2024-02-24T21:02:02.983Z,6.40
2024-02-24T21:04:32.828Z,6.30
2024-02-24T21:07:03.113Z,6.30
2024-02-24T21:09:32.253Z,6.40
2024-02-24T21:12:04.023Z,6.30
2024-02-24T21:14:34.050Z,6.20
2024-02-24T21:17:04.296Z,6.10
2024-02-24T21:19:31.406Z,6.00
2024-02-24T21:22:03.061Z,6.20
2024-02-24T21:24:30.208Z,6.20
2024-02-24T21:27:07.273Z,6.20
2024-02-24T21:29:37.317Z,6.00
2024-02-24T21:32:07.513Z,5.90
2024-02-24T21:34:40.473Z,5.90
2024-02-24T21:37:09.511Z,5.90
2024-02-24T21:39:46.088Z,5.90
2024-02-24T21:42:16.927Z,5.90
2024-02-24T21:44:48.467Z,5.80
2024-02-24T21:47:19.423Z,5.70
2024-02-24T21:49:48.051Z,5.80
2024-02-24T21:52:22.440Z,5.70
2024-02-24T21:54:59.071Z,5.70
2024-02-24T21:57:28.219Z,5.50
2024-02-24T21:59:55.559Z,5.30
2024-02-24T22:02:25.700Z,5.20
2024-02-24T22:04:55.556Z,5.10
2024-02-24T22:07:29.300Z,5.10
2024-02-24T22:09:59.237Z,5.10
2024-02-24T22:12:29.620Z,4.80
2024-02-24T22:15:03.742Z,4.80
2024-02-24T22:17:42.432Z,5.00
2024-02-24T22:20:16.480Z,5.20
2024-02-24T22:22:46.586Z,5.30
2024-02-24T22:25:35.157Z,5.30
2024-02-24T22:28:03.834Z,5.00
2024-02-24T22:30:32.554Z,4.80
2024-02-24T22:33:02.097Z,4.90
2024-02-24T22:35:39.271Z,5.00
2024-02-24T22:38:06.541Z,5.00
2024-02-24T22:40:38.922Z,4.70
2024-02-24T22:43:09.443Z,4.50
2024-02-24T22:45:40.066Z,4.40
2024-02-24T22:48:12.339Z,4.30
2024-02-24T22:50:42.905Z,4.30
2024-02-24T22:53:12.620Z,4.40
2024-02-24T22:55:41.865Z,4.60
2024-02-24T22:58:14.666Z,4.50
2024-02-24T23:00:51.033Z,4.40
2024-02-24T23:03:22.447Z,4.40
2024-02-24T23:05:52.530Z,4.20
2024-02-24T23:08:23.159Z,4.30
2024-02-24T23:10:51.483Z,4.30
2024-02-24T23:13:19.934Z,4.30
2024-02-24T23:15:49.039Z,4.20
2024-02-24T23:18:18.588Z,4.20
2024-02-24T23:20:48.217Z,4.20
2024-02-24T23:23:17.719Z,4.10
2024-02-24T23:25:46.083Z,4.10
2024-02-24T23:28:15.634Z,4.10
2024-02-24T23:30:47.132Z,4.00
2024-02-24T23:33:17.062Z,4.00
2024-02-24T23:35:49.851Z,3.90
2024-02-24T23:38:19.906Z,3.90
2024-02-24T23:40:51.811Z,3.90
2024-02-24T23:43:29.201Z,3.90
2024-02-24T23:46:11.201Z,4.00
2024-02-24T23:48:45.246Z,3.90
2024-02-24T23:51:24.028Z,3.80
2024-02-24T23:53:52.753Z,4.10
2024-02-24T23:56:33.514Z,3.90
2024-02-24T23:59:09.145Z,3.90
